RYR5360 EHEH-LDZD
Flight info
| Callsign | RYR5360 |
|---|---|
| Flight time | 1h 33m |
| Altitude | 37000 |
| Route | LNO Z283 RITAX M624 DIK M150 KRH DCT UTABA DCT BEMKI DCT ELMEM DCT DIRAB DCT VESAL DCT UPIRO DCT PEVAL DCT PUL DCT LOS |
| Aircraft | B738/M-SDE2E3FGHIRWXY/LB1 |
Departure
| Time | 2026-04-27 13:42 |
|---|---|
| Airport | Eindhoven Airport (EHEH) |
Arrival
| Time | 2026-04-27 15:16 |
|---|---|
| Airport | Zadar Airport (LDZD) |
| Time | Latitude | Longitude | Altitude | Speed | Heading |
|---|---|---|---|---|---|
| 2026-04-27 13:03 | 51.45862 | 5.39040 | 74 ft | 0 kts | 126° |
| 2026-04-27 13:27 | 51.45872 | 5.39016 | 66 ft | 4 kts | 125° |
| 2026-04-27 13:27 | 51.45888 | 5.38981 | 69 ft | 4 kts | 125° |
| 2026-04-27 13:27 | 51.45904 | 5.38946 | 65 ft | 4 kts | 125° |
| 2026-04-27 13:27 | 51.45910 | 5.38932 | 66 ft | 1 kts | 125° |
| 2026-04-27 13:28 | 51.45910 | 5.38931 | 66 ft | 0 kts | 125° |
| 2026-04-27 13:31 | 51.45899 | 5.38941 | 67 ft | 3 kts | 166° |
| 2026-04-27 13:31 | 51.45879 | 5.38930 | 72 ft | 3 kts | 207° |
| 2026-04-27 13:31 | 51.45861 | 5.38911 | 70 ft | 4 kts | 214° |
| 2026-04-27 13:31 | 51.45830 | 5.38877 | 67 ft | 7 kts | 214° |
| 2026-04-27 13:32 | 51.45795 | 5.38820 | 71 ft | 8 kts | 249° |
| 2026-04-27 13:32 | 51.45811 | 5.38740 | 72 ft | 8 kts | 301° |
| 2026-04-27 13:32 | 51.45839 | 5.38670 | 70 ft | 7 kts | 305° |
| 2026-04-27 13:32 | 51.45868 | 5.38604 | 71 ft | 7 kts | 306° |
| 2026-04-27 13:33 | 51.45901 | 5.38532 | 68 ft | 9 kts | 306° |
| 2026-04-27 13:33 | 51.45941 | 5.38443 | 76 ft | 10 kts | 306° |
| 2026-04-27 13:33 | 51.45979 | 5.38358 | 72 ft | 8 kts | 306° |
| 2026-04-27 13:33 | 51.45986 | 5.38277 | 73 ft | 8 kts | 242° |
| 2026-04-27 13:34 | 51.45935 | 5.38204 | 74 ft | 13 kts | 217° |
| 2026-04-27 13:34 | 51.45849 | 5.38108 | 72 ft | 16 kts | 214° |
| 2026-04-27 13:34 | 51.45760 | 5.38010 | 71 ft | 15 kts | 214° |
| 2026-04-27 13:34 | 51.45676 | 5.37916 | 71 ft | 14 kts | 215° |
| 2026-04-27 13:35 | 51.45595 | 5.37826 | 83 ft | 14 kts | 215° |
| 2026-04-27 13:35 | 51.45518 | 5.37739 | 81 ft | 13 kts | 215° |
| 2026-04-27 13:35 | 51.45444 | 5.37656 | 81 ft | 13 kts | 215° |
| 2026-04-27 13:35 | 51.45371 | 5.37575 | 82 ft | 13 kts | 215° |
| 2026-04-27 13:36 | 51.45295 | 5.37489 | 72 ft | 13 kts | 215° |
| 2026-04-27 13:36 | 51.45222 | 5.37406 | 76 ft | 13 kts | 215° |
| 2026-04-27 13:36 | 51.45149 | 5.37325 | 73 ft | 13 kts | 215° |
| 2026-04-27 13:36 | 51.45079 | 5.37245 | 83 ft | 12 kts | 215° |
| 2026-04-27 13:37 | 51.45010 | 5.37168 | 80 ft | 12 kts | 215° |
| 2026-04-27 13:37 | 51.44943 | 5.37092 | 84 ft | 12 kts | 215° |
| 2026-04-27 13:37 | 51.44876 | 5.37019 | 83 ft | 11 kts | 214° |
| 2026-04-27 13:37 | 51.44808 | 5.36944 | 84 ft | 14 kts | 215° |
| 2026-04-27 13:38 | 51.44711 | 5.36833 | 84 ft | 18 kts | 216° |
| 2026-04-27 13:38 | 51.44602 | 5.36709 | 72 ft | 20 kts | 215° |
| 2026-04-27 13:38 | 51.44491 | 5.36585 | 73 ft | 19 kts | 214° |
| 2026-04-27 13:38 | 51.44383 | 5.36465 | 75 ft | 19 kts | 215° |
| 2026-04-27 13:39 | 51.44278 | 5.36348 | 83 ft | 18 kts | 215° |
| 2026-04-27 13:39 | 51.44217 | 5.36280 | 84 ft | 10 kts | 215° |
| 2026-04-27 13:39 | 51.44159 | 5.36216 | 84 ft | 10 kts | 215° |
| 2026-04-27 13:39 | 51.44103 | 5.36152 | 85 ft | 10 kts | 215° |
| 2026-04-27 13:40 | 51.44038 | 5.36082 | 82 ft | 12 kts | 207° |
| 2026-04-27 13:40 | 51.43977 | 5.36099 | 75 ft | 3 kts | 140° |
| 2026-04-27 13:40 | 51.43963 | 5.36128 | 73 ft | 4 kts | 124° |
| 2026-04-27 13:40 | 51.43945 | 5.36176 | 73 ft | 5 kts | 111° |
| 2026-04-27 13:41 | 51.43951 | 5.36242 | 78 ft | 8 kts | 62° |
| 2026-04-27 13:41 | 51.44133 | 5.36465 | 79 ft | 65 kts | 35° |
| 2026-04-27 13:41 | 51.44673 | 5.37067 | 75 ft | 121 kts | 36° |
| 2026-04-27 13:41 | 51.45484 | 5.37981 | 152 ft | 158 kts | 34° |
| 2026-04-27 13:42 | 51.46428 | 5.39000 | 653 ft | 167 kts | 31° |
| 2026-04-27 13:42 | 51.47438 | 5.40089 | 1020 ft | 189 kts | 35° |
| 2026-04-27 13:42 | 51.48537 | 5.41340 | 1581 ft | 196 kts | 36° |
| 2026-04-27 13:42 | 51.49681 | 5.42639 | 1942 ft | 206 kts | 35° |
| 2026-04-27 13:43 | 51.50797 | 5.44044 | 2493 ft | 206 kts | 50° |
| 2026-04-27 13:43 | 51.51446 | 5.46080 | 2900 ft | 214 kts | 75° |
| 2026-04-27 13:43 | 51.51542 | 5.48452 | 3539 ft | 218 kts | 99° |
| 2026-04-27 13:43 | 51.51056 | 5.50785 | 4119 ft | 224 kts | 109° |
| 2026-04-27 13:44 | 51.50503 | 5.53158 | 4692 ft | 231 kts | 110° |
| 2026-04-27 13:44 | 51.49930 | 5.55588 | 5361 ft | 235 kts | 110° |
| 2026-04-27 13:44 | 51.49359 | 5.58060 | 5952 ft | 241 kts | 106° |
| 2026-04-27 13:44 | 51.48943 | 5.60797 | 6173 ft | 263 kts | 101° |
| 2026-04-27 13:45 | 51.48559 | 5.63739 | 6671 ft | 273 kts | 105° |
| 2026-04-27 13:45 | 51.47618 | 5.66379 | 7251 ft | 278 kts | 139° |
| 2026-04-27 13:45 | 51.46040 | 5.68176 | 7976 ft | 281 kts | 148° |
| 2026-04-27 13:45 | 51.44373 | 5.69897 | 8613 ft | 287 kts | 148° |
| 2026-04-27 13:46 | 51.42689 | 5.71629 | 9361 ft | 290 kts | 149° |
| 2026-04-27 13:46 | 51.40974 | 5.73402 | 10077 ft | 294 kts | 148° |
| 2026-04-27 13:46 | 51.39248 | 5.75200 | 10714 ft | 301 kts | 148° |
| 2026-04-27 13:46 | 51.37426 | 5.77105 | 10878 ft | 324 kts | 148° |
| 2026-04-27 13:47 | 51.35478 | 5.79145 | 11134 ft | 343 kts | 148° |
| 2026-04-27 13:47 | 51.33462 | 5.81264 | 11705 ft | 350 kts | 148° |
| 2026-04-27 13:47 | 51.31417 | 5.83418 | 12392 ft | 354 kts | 149° |
| 2026-04-27 13:47 | 51.29350 | 5.85591 | 13097 ft | 358 kts | 149° |
| 2026-04-27 13:48 | 51.27278 | 5.87764 | 13805 ft | 362 kts | 149° |
| 2026-04-27 13:48 | 51.25112 | 5.89859 | 14452 ft | 364 kts | 159° |
| 2026-04-27 13:48 | 51.22669 | 5.90809 | 15112 ft | 361 kts | 177° |
| 2026-04-27 13:48 | 51.20167 | 5.91269 | 15821 ft | 364 kts | 177° |
| 2026-04-27 13:49 | 51.17641 | 5.91753 | 16453 ft | 369 kts | 177° |
| 2026-04-27 13:49 | 51.15939 | 5.92095 | 16847 ft | 373 kts | 176° |
| 2026-04-27 13:49 | 51.13347 | 5.92634 | 17484 ft | 378 kts | 176° |
| 2026-04-27 13:49 | 51.10721 | 5.93177 | 18158 ft | 381 kts | 179° |
| 2026-04-27 13:50 | 51.08096 | 5.92954 | 18733 ft | 375 kts | 199° |
| 2026-04-27 13:50 | 51.05591 | 5.91797 | 19383 ft | 375 kts | 201° |
| 2026-04-27 13:50 | 51.03078 | 5.90628 | 20004 ft | 377 kts | 201° |
| 2026-04-27 13:50 | 51.00546 | 5.89469 | 20592 ft | 380 kts | 201° |
| 2026-04-27 13:51 | 50.97982 | 5.88310 | 21184 ft | 383 kts | 200° |
| 2026-04-27 13:51 | 50.95441 | 5.87174 | 21766 ft | 386 kts | 200° |
| 2026-04-27 13:51 | 50.92843 | 5.86020 | 22346 ft | 389 kts | 200° |
| 2026-04-27 13:51 | 50.90231 | 5.84864 | 22908 ft | 391 kts | 200° |
| 2026-04-27 13:52 | 50.87601 | 5.83704 | 23482 ft | 394 kts | 200° |
| 2026-04-27 13:52 | 50.84951 | 5.82537 | 23992 ft | 397 kts | 200° |
| 2026-04-27 13:52 | 50.82281 | 5.81362 | 24446 ft | 399 kts | 201° |
| 2026-04-27 13:52 | 50.79602 | 5.80185 | 24901 ft | 401 kts | 201° |
| 2026-04-27 13:53 | 50.74185 | 5.77808 | 25795 ft | 406 kts | 201° |
| 2026-04-27 13:53 | 50.71460 | 5.76613 | 26190 ft | 408 kts | 201° |
| 2026-04-27 13:53 | 50.68710 | 5.75410 | 26595 ft | 411 kts | 201° |
| 2026-04-27 13:54 | 50.65944 | 5.74201 | 27013 ft | 413 kts | 201° |
| 2026-04-27 13:54 | 50.63167 | 5.72990 | 27434 ft | 415 kts | 201° |
| 2026-04-27 13:54 | 50.60368 | 5.71772 | 27837 ft | 417 kts | 200° |
| 2026-04-27 13:54 | 50.57463 | 5.71094 | 28179 ft | 433 kts | 184° |
| 2026-04-27 13:55 | 50.54434 | 5.71627 | 28593 ft | 440 kts | 178° |
| 2026-04-27 13:55 | 50.51397 | 5.72289 | 28967 ft | 442 kts | 178° |
| 2026-04-27 13:55 | 50.48352 | 5.73244 | 29264 ft | 452 kts | 168° |
| 2026-04-27 13:55 | 50.45381 | 5.74999 | 29620 ft | 458 kts | 163° |
| 2026-04-27 13:56 | 50.42434 | 5.76947 | 29977 ft | 461 kts | 162° |
| 2026-04-27 13:56 | 50.39478 | 5.78929 | 30284 ft | 464 kts | 162° |
| 2026-04-27 13:56 | 50.36540 | 5.80885 | 30544 ft | 466 kts | 163° |
| 2026-04-27 13:56 | 50.33550 | 5.82849 | 30825 ft | 467 kts | 163° |
| 2026-04-27 13:57 | 50.30542 | 5.84801 | 31096 ft | 469 kts | 163° |
| 2026-04-27 13:57 | 50.27521 | 5.86743 | 31388 ft | 470 kts | 163° |
| 2026-04-27 13:57 | 50.24487 | 5.88684 | 31701 ft | 469 kts | 163° |
| 2026-04-27 13:57 | 50.21471 | 5.90609 | 32093 ft | 467 kts | 163° |
| 2026-04-27 13:58 | 50.18463 | 5.92527 | 32494 ft | 466 kts | 163° |
| 2026-04-27 13:58 | 50.15468 | 5.94433 | 32832 ft | 465 kts | 163° |
| 2026-04-27 13:58 | 50.12465 | 5.96341 | 33142 ft | 465 kts | 163° |
| 2026-04-27 13:58 | 50.09457 | 5.98250 | 33397 ft | 467 kts | 163° |
| 2026-04-27 13:59 | 50.06450 | 6.00156 | 33743 ft | 466 kts | 163° |
| 2026-04-27 13:59 | 50.03456 | 6.02054 | 34086 ft | 464 kts | 163° |
| 2026-04-27 13:59 | 50.00465 | 6.03947 | 34393 ft | 463 kts | 163° |
| 2026-04-27 13:59 | 49.97481 | 6.05833 | 34640 ft | 464 kts | 163° |
| 2026-04-27 14:00 | 49.94518 | 6.07702 | 34863 ft | 464 kts | 163° |
| 2026-04-27 14:00 | 49.91526 | 6.09587 | 35141 ft | 464 kts | 163° |
| 2026-04-27 14:00 | 49.88602 | 6.11737 | 35392 ft | 470 kts | 152° |
| 2026-04-27 14:00 | 49.86021 | 6.14903 | 35614 ft | 479 kts | 138° |
| 2026-04-27 14:01 | 49.83928 | 6.18951 | 35866 ft | 484 kts | 123° |
| 2026-04-27 14:01 | 49.82338 | 6.23565 | 36127 ft | 485 kts | 119° |
| 2026-04-27 14:01 | 49.80832 | 6.28241 | 36372 ft | 485 kts | 118° |
| 2026-04-27 14:01 | 49.79322 | 6.32907 | 36575 ft | 485 kts | 119° |
| 2026-04-27 14:02 | 49.77779 | 6.37571 | 36810 ft | 485 kts | 119° |
| 2026-04-27 14:02 | 49.76218 | 6.42196 | 37086 ft | 483 kts | 120° |
| 2026-04-27 14:02 | 49.74665 | 6.46746 | 37187 ft | 485 kts | 120° |
| 2026-04-27 14:03 | 49.71502 | 6.55977 | 37172 ft | 485 kts | 120° |
| 2026-04-27 14:03 | 49.68352 | 6.65131 | 37168 ft | 481 kts | 120° |
| 2026-04-27 14:04 | 49.65196 | 6.74277 | 37162 ft | 478 kts | 120° |
| 2026-04-27 14:04 | 49.62088 | 6.83253 | 37168 ft | 476 kts | 120° |
| 2026-04-27 14:05 | 49.58956 | 6.92269 | 37169 ft | 476 kts | 120° |
| 2026-04-27 14:05 | 49.55816 | 7.01273 | 37175 ft | 477 kts | 120° |
| 2026-04-27 14:06 | 49.52661 | 7.10291 | 37147 ft | 479 kts | 120° |
| 2026-04-27 14:06 | 49.49483 | 7.19343 | 37184 ft | 481 kts | 120° |
| 2026-04-27 14:07 | 49.46285 | 7.28421 | 37183 ft | 483 kts | 120° |
| 2026-04-27 14:07 | 49.43070 | 7.37515 | 37184 ft | 486 kts | 120° |
| 2026-04-27 14:08 | 49.39853 | 7.46585 | 37182 ft | 488 kts | 121° |
| 2026-04-27 14:08 | 49.36598 | 7.55728 | 37173 ft | 489 kts | 121° |
| 2026-04-27 14:09 | 49.33329 | 7.64878 | 37165 ft | 489 kts | 121° |
| 2026-04-27 14:09 | 49.30058 | 7.74007 | 37170 ft | 488 kts | 121° |
| 2026-04-27 14:10 | 49.26789 | 7.83097 | 37173 ft | 486 kts | 121° |
| 2026-04-27 14:10 | 49.23526 | 7.92174 | 37170 ft | 485 kts | 120° |
| 2026-04-27 14:11 | 49.20280 | 8.01212 | 36620 ft | 484 kts | 121° |
| 2026-04-27 14:11 | 49.18667 | 8.05693 | 37260 ft | 479 kts | 121° |
| 2026-04-27 14:11 | 49.17075 | 8.10106 | 37174 ft | 482 kts | 121° |
| 2026-04-27 14:12 | 49.13817 | 8.19108 | 37174 ft | 486 kts | 121° |
| 2026-04-27 14:12 | 49.10532 | 8.28159 | 37172 ft | 489 kts | 121° |
| 2026-04-27 14:13 | 49.07187 | 8.37234 | 37171 ft | 491 kts | 121° |
| 2026-04-27 14:13 | 49.03809 | 8.46303 | 37164 ft | 491 kts | 121° |
| 2026-04-27 14:14 | 49.00387 | 8.55283 | 37161 ft | 488 kts | 127° |
| 2026-04-27 14:14 | 48.95862 | 8.62828 | 37156 ft | 477 kts | 145° |
| 2026-04-27 14:15 | 48.90640 | 8.69026 | 37158 ft | 475 kts | 146° |
| 2026-04-27 14:15 | 48.85460 | 8.75138 | 37162 ft | 474 kts | 146° |
| 2026-04-27 14:16 | 48.80276 | 8.81328 | 37149 ft | 473 kts | 145° |
| 2026-04-27 14:16 | 48.75116 | 8.87515 | 37157 ft | 472 kts | 145° |
| 2026-04-27 14:17 | 48.69967 | 8.93680 | 37147 ft | 472 kts | 145° |
| 2026-04-27 14:17 | 48.64813 | 8.99830 | 37161 ft | 472 kts | 145° |
| 2026-04-27 14:18 | 48.59649 | 9.05974 | 37157 ft | 473 kts | 145° |
| 2026-04-27 14:18 | 48.54467 | 9.12122 | 37161 ft | 474 kts | 145° |
| 2026-04-27 14:19 | 48.49269 | 9.18272 | 37155 ft | 475 kts | 145° |
| 2026-04-27 14:19 | 48.44059 | 9.24422 | 37145 ft | 476 kts | 145° |
| 2026-04-27 14:20 | 48.38863 | 9.30538 | 37149 ft | 477 kts | 145° |
| 2026-04-27 14:20 | 48.33627 | 9.36686 | 37136 ft | 478 kts | 145° |
| 2026-04-27 14:21 | 48.28377 | 9.42836 | 37144 ft | 478 kts | 145° |
| 2026-04-27 14:21 | 48.23149 | 9.49001 | 37135 ft | 478 kts | 144° |
| 2026-04-27 14:22 | 48.18009 | 9.55335 | 37146 ft | 478 kts | 143° |
| 2026-04-27 14:22 | 48.12884 | 9.61688 | 37152 ft | 478 kts | 143° |
| 2026-04-27 14:23 | 48.07750 | 9.68003 | 37151 ft | 477 kts | 143° |
| 2026-04-27 14:23 | 48.02610 | 9.74284 | 37150 ft | 477 kts | 143° |
| 2026-04-27 14:24 | 47.97511 | 9.80495 | 37160 ft | 476 kts | 143° |
| 2026-04-27 14:24 | 47.92373 | 9.86737 | 37148 ft | 476 kts | 143° |
| 2026-04-27 14:25 | 47.87235 | 9.92964 | 37155 ft | 475 kts | 143° |
| 2026-04-27 14:25 | 47.82103 | 9.99168 | 37145 ft | 475 kts | 143° |
| 2026-04-27 14:26 | 47.76962 | 10.05367 | 37148 ft | 475 kts | 143° |
| 2026-04-27 14:26 | 47.71824 | 10.11546 | 37147 ft | 475 kts | 143° |
| 2026-04-27 14:27 | 47.66680 | 10.17716 | 37142 ft | 476 kts | 143° |
| 2026-04-27 14:27 | 47.61559 | 10.23845 | 37158 ft | 476 kts | 143° |
| 2026-04-27 14:28 | 47.56395 | 10.30007 | 37168 ft | 476 kts | 143° |
| 2026-04-27 14:28 | 47.52906 | 10.33765 | 37147 ft | 475 kts | 148° |
| 2026-04-27 14:29 | 47.47352 | 10.39063 | 37156 ft | 475 kts | 150° |
| 2026-04-27 14:29 | 47.41790 | 10.44338 | 37171 ft | 475 kts | 149° |
| 2026-04-27 14:30 | 47.36258 | 10.49685 | 37178 ft | 475 kts | 148° |
| 2026-04-27 14:30 | 47.30726 | 10.55046 | 37153 ft | 475 kts | 148° |
| 2026-04-27 14:31 | 47.25261 | 10.60443 | 37159 ft | 477 kts | 146° |
| 2026-04-27 14:31 | 47.19869 | 10.66152 | 37128 ft | 477 kts | 146° |
| 2026-04-27 14:32 | 47.14496 | 10.71859 | 37134 ft | 476 kts | 146° |
| 2026-04-27 14:32 | 47.09102 | 10.77513 | 37146 ft | 476 kts | 146° |
| 2026-04-27 14:33 | 47.03689 | 10.83145 | 37140 ft | 477 kts | 146° |
| 2026-04-27 14:33 | 46.98276 | 10.88761 | 37125 ft | 477 kts | 146° |
| 2026-04-27 14:34 | 46.92854 | 10.94378 | 37117 ft | 477 kts | 146° |
| 2026-04-27 14:34 | 46.87437 | 10.99977 | 37105 ft | 476 kts | 146° |
| 2026-04-27 14:35 | 46.82937 | 11.04619 | 37095 ft | 476 kts | 145° |
| 2026-04-27 14:35 | 46.78059 | 11.11117 | 37108 ft | 475 kts | 133° |
| 2026-04-27 14:36 | 46.73594 | 11.18213 | 37072 ft | 474 kts | 132° |
| 2026-04-27 14:36 | 46.69124 | 11.25271 | 37035 ft | 474 kts | 133° |
| 2026-04-27 14:37 | 46.64619 | 11.32274 | 37009 ft | 473 kts | 133° |
| 2026-04-27 14:37 | 46.60115 | 11.39225 | 37004 ft | 471 kts | 133° |
| 2026-04-27 14:38 | 46.55614 | 11.46152 | 37001 ft | 470 kts | 133° |
| 2026-04-27 14:38 | 46.51165 | 11.52988 | 37014 ft | 469 kts | 133° |
| 2026-04-27 14:39 | 46.46682 | 11.59860 | 37024 ft | 468 kts | 133° |
| 2026-04-27 14:39 | 46.42201 | 11.66714 | 37042 ft | 468 kts | 133° |
| 2026-04-27 14:40 | 46.37686 | 11.73520 | 37070 ft | 469 kts | 135° |
| 2026-04-27 14:40 | 46.32943 | 11.80049 | 37084 ft | 470 kts | 136° |
| 2026-04-27 14:41 | 46.28149 | 11.86483 | 37103 ft | 471 kts | 137° |
| 2026-04-27 14:41 | 46.23358 | 11.92950 | 37102 ft | 471 kts | 136° |
| 2026-04-27 14:42 | 46.18577 | 11.99435 | 37097 ft | 472 kts | 136° |
| 2026-04-27 14:42 | 46.13798 | 12.05914 | 37103 ft | 472 kts | 136° |
| 2026-04-27 14:43 | 46.09011 | 12.12387 | 37093 ft | 471 kts | 136° |
| 2026-04-27 14:43 | 46.04253 | 12.18802 | 37090 ft | 470 kts | 136° |
| 2026-04-27 14:44 | 45.99478 | 12.25223 | 37076 ft | 469 kts | 136° |
| 2026-04-27 14:44 | 45.94712 | 12.31617 | 37085 ft | 468 kts | 136° |
| 2026-04-27 14:45 | 45.89941 | 12.38003 | 37082 ft | 467 kts | 136° |
| 2026-04-27 14:45 | 45.85185 | 12.44351 | 37080 ft | 466 kts | 136° |
| 2026-04-27 14:46 | 45.80430 | 12.50684 | 37083 ft | 466 kts | 137° |
| 2026-04-27 14:46 | 45.75706 | 12.56961 | 37085 ft | 465 kts | 137° |
| 2026-04-27 14:47 | 45.70954 | 12.63259 | 37097 ft | 466 kts | 137° |
| 2026-04-27 14:47 | 45.68559 | 12.66430 | 36625 ft | 472 kts | 137° |
| 2026-04-27 14:47 | 45.66152 | 12.69612 | 36130 ft | 470 kts | 137° |
| 2026-04-27 14:47 | 45.63754 | 12.72776 | 35551 ft | 469 kts | 137° |
| 2026-04-27 14:48 | 45.61407 | 12.76020 | 34973 ft | 469 kts | 133° |
| 2026-04-27 14:48 | 45.57109 | 12.82917 | 34155 ft | 461 kts | 130° |
| 2026-04-27 14:48 | 45.55027 | 12.86368 | 33680 ft | 457 kts | 130° |
| 2026-04-27 14:49 | 45.52947 | 12.89797 | 33221 ft | 454 kts | 130° |
| 2026-04-27 14:49 | 45.50878 | 12.93171 | 32797 ft | 450 kts | 130° |
| 2026-04-27 14:49 | 45.48871 | 12.96590 | 32211 ft | 450 kts | 127° |
| 2026-04-27 14:49 | 45.46959 | 13.00107 | 31770 ft | 447 kts | 126° |
| 2026-04-27 14:50 | 45.45100 | 13.03638 | 31330 ft | 444 kts | 126° |
| 2026-04-27 14:50 | 45.43283 | 13.07109 | 30915 ft | 441 kts | 126° |
| 2026-04-27 14:50 | 45.41448 | 13.10597 | 30504 ft | 438 kts | 126° |
| 2026-04-27 14:50 | 45.39618 | 13.14048 | 30081 ft | 435 kts | 126° |
| 2026-04-27 14:51 | 45.37792 | 13.17465 | 29610 ft | 432 kts | 126° |
| 2026-04-27 14:51 | 45.35980 | 13.20837 | 29195 ft | 427 kts | 127° |
| 2026-04-27 14:51 | 45.34181 | 13.24172 | 28768 ft | 423 kts | 127° |
| 2026-04-27 14:51 | 45.32997 | 13.26363 | 28509 ft | 420 kts | 127° |
| 2026-04-27 14:52 | 45.30622 | 13.30749 | 27936 ft | 416 kts | 127° |
| 2026-04-27 14:52 | 45.28862 | 13.33994 | 27523 ft | 413 kts | 127° |
| 2026-04-27 14:52 | 45.27116 | 13.37209 | 27118 ft | 410 kts | 127° |
| 2026-04-27 14:52 | 45.25380 | 13.40404 | 26719 ft | 407 kts | 127° |
| 2026-04-27 14:53 | 45.23680 | 13.43529 | 26327 ft | 404 kts | 127° |
| 2026-04-27 14:53 | 45.21969 | 13.46672 | 25934 ft | 401 kts | 127° |
| 2026-04-27 14:53 | 45.20263 | 13.49801 | 25545 ft | 399 kts | 127° |
| 2026-04-27 14:53 | 45.18572 | 13.52900 | 25148 ft | 397 kts | 127° |
| 2026-04-27 14:54 | 45.16885 | 13.55989 | 24769 ft | 395 kts | 127° |
| 2026-04-27 14:54 | 45.15204 | 13.59062 | 24371 ft | 393 kts | 127° |
| 2026-04-27 14:54 | 45.13534 | 13.62112 | 23983 ft | 391 kts | 127° |
| 2026-04-27 14:54 | 45.11864 | 13.65159 | 23573 ft | 391 kts | 127° |
| 2026-04-27 14:55 | 45.10198 | 13.68196 | 23128 ft | 389 kts | 127° |
| 2026-04-27 14:55 | 45.08545 | 13.71205 | 22714 ft | 386 kts | 127° |
| 2026-04-27 14:55 | 45.06901 | 13.74196 | 22313 ft | 384 kts | 127° |
| 2026-04-27 14:55 | 45.05267 | 13.77164 | 21923 ft | 381 kts | 127° |
| 2026-04-27 14:56 | 45.03645 | 13.80108 | 21544 ft | 378 kts | 127° |
| 2026-04-27 14:56 | 45.02035 | 13.83028 | 21165 ft | 375 kts | 127° |
| 2026-04-27 14:56 | 45.00432 | 13.85931 | 20790 ft | 373 kts | 127° |
| 2026-04-27 14:56 | 44.98838 | 13.88814 | 20437 ft | 371 kts | 127° |
| 2026-04-27 14:57 | 44.97254 | 13.91678 | 20061 ft | 369 kts | 127° |
| 2026-04-27 14:57 | 44.95677 | 13.94526 | 19690 ft | 367 kts | 127° |
| 2026-04-27 14:57 | 44.94110 | 13.97354 | 19324 ft | 365 kts | 127° |
| 2026-04-27 14:57 | 44.92543 | 14.00177 | 18953 ft | 364 kts | 127° |
| 2026-04-27 14:58 | 44.91006 | 14.02944 | 18586 ft | 362 kts | 127° |
| 2026-04-27 14:58 | 44.89456 | 14.05732 | 18195 ft | 361 kts | 127° |
| 2026-04-27 14:58 | 44.87912 | 14.08508 | 17769 ft | 359 kts | 127° |
| 2026-04-27 14:58 | 44.86371 | 14.11275 | 17384 ft | 356 kts | 127° |
| 2026-04-27 14:59 | 44.84847 | 14.14008 | 17021 ft | 354 kts | 127° |
| 2026-04-27 14:59 | 44.83327 | 14.16731 | 16612 ft | 352 kts | 128° |
| 2026-04-27 14:59 | 44.81816 | 14.19437 | 16234 ft | 350 kts | 128° |
| 2026-04-27 14:59 | 44.80310 | 14.22130 | 15863 ft | 349 kts | 128° |
| 2026-04-27 15:00 | 44.78815 | 14.24801 | 15496 ft | 347 kts | 128° |
| 2026-04-27 15:00 | 44.77324 | 14.27463 | 15139 ft | 345 kts | 128° |
| 2026-04-27 15:00 | 44.75845 | 14.30101 | 14792 ft | 343 kts | 128° |
| 2026-04-27 15:00 | 44.74370 | 14.32730 | 14441 ft | 341 kts | 129° |
| 2026-04-27 15:01 | 44.72903 | 14.35341 | 14082 ft | 339 kts | 129° |
| 2026-04-27 15:01 | 44.71442 | 14.37940 | 13721 ft | 338 kts | 129° |
| 2026-04-27 15:01 | 44.69985 | 14.40528 | 13342 ft | 336 kts | 129° |
| 2026-04-27 15:01 | 44.68557 | 14.43063 | 12982 ft | 334 kts | 129° |
| 2026-04-27 15:02 | 44.67119 | 14.45613 | 12629 ft | 332 kts | 129° |
| 2026-04-27 15:02 | 44.65693 | 14.48141 | 12288 ft | 329 kts | 129° |
| 2026-04-27 15:02 | 44.64275 | 14.50652 | 11947 ft | 326 kts | 129° |
| 2026-04-27 15:02 | 44.62868 | 14.53141 | 11615 ft | 324 kts | 129° |
| 2026-04-27 15:03 | 44.61472 | 14.55608 | 11277 ft | 322 kts | 129° |
| 2026-04-27 15:03 | 44.60087 | 14.58055 | 10942 ft | 319 kts | 129° |
| 2026-04-27 15:03 | 44.58727 | 14.60454 | 10607 ft | 309 kts | 129° |
| 2026-04-27 15:03 | 44.57411 | 14.62777 | 10382 ft | 296 kts | 129° |
| 2026-04-27 15:04 | 44.56159 | 14.64984 | 10263 ft | 284 kts | 129° |
| 2026-04-27 15:04 | 44.54944 | 14.67124 | 10155 ft | 276 kts | 129° |
| 2026-04-27 15:04 | 44.53759 | 14.69207 | 10039 ft | 269 kts | 129° |
| 2026-04-27 15:04 | 44.52601 | 14.71243 | 9796 ft | 267 kts | 129° |
| 2026-04-27 15:05 | 44.51445 | 14.73272 | 9542 ft | 265 kts | 129° |
| 2026-04-27 15:05 | 44.50299 | 14.75283 | 9297 ft | 263 kts | 129° |
| 2026-04-27 15:05 | 44.49163 | 14.77276 | 9041 ft | 261 kts | 129° |
| 2026-04-27 15:05 | 44.48034 | 14.79256 | 8793 ft | 259 kts | 130° |
| 2026-04-27 15:06 | 44.46911 | 14.81222 | 8547 ft | 258 kts | 130° |
| 2026-04-27 15:06 | 44.45796 | 14.83174 | 8302 ft | 256 kts | 130° |
| 2026-04-27 15:06 | 44.44701 | 14.85091 | 8061 ft | 254 kts | 130° |
| 2026-04-27 15:06 | 44.43598 | 14.87018 | 7818 ft | 253 kts | 130° |
| 2026-04-27 15:07 | 44.42501 | 14.88935 | 7575 ft | 252 kts | 130° |
| 2026-04-27 15:07 | 44.41412 | 14.90838 | 7336 ft | 250 kts | 130° |
| 2026-04-27 15:07 | 44.40323 | 14.92739 | 7086 ft | 249 kts | 130° |
| 2026-04-27 15:07 | 44.39238 | 14.94631 | 6838 ft | 249 kts | 130° |
| 2026-04-27 15:08 | 44.38158 | 14.96513 | 6590 ft | 248 kts | 130° |
| 2026-04-27 15:08 | 44.37078 | 14.98392 | 6328 ft | 248 kts | 130° |
| 2026-04-27 15:08 | 44.35991 | 15.00263 | 6060 ft | 247 kts | 131° |
| 2026-04-27 15:08 | 44.34835 | 15.02041 | 5801 ft | 246 kts | 135° |
| 2026-04-27 15:09 | 44.33647 | 15.03717 | 5547 ft | 240 kts | 136° |
| 2026-04-27 15:09 | 44.32467 | 15.05326 | 5263 ft | 235 kts | 136° |
| 2026-04-27 15:09 | 44.31303 | 15.06901 | 5008 ft | 229 kts | 136° |
| 2026-04-27 15:09 | 44.30172 | 15.08430 | 4769 ft | 223 kts | 136° |
| 2026-04-27 15:10 | 44.29069 | 15.09920 | 4494 ft | 218 kts | 136° |
| 2026-04-27 15:10 | 44.28006 | 15.11362 | 4262 ft | 209 kts | 136° |
| 2026-04-27 15:10 | 44.26979 | 15.12754 | 4019 ft | 202 kts | 136° |
| 2026-04-27 15:10 | 44.25982 | 15.14104 | 3801 ft | 198 kts | 136° |
| 2026-04-27 15:11 | 44.25008 | 15.15424 | 3593 ft | 193 kts | 136° |
| 2026-04-27 15:11 | 44.24063 | 15.16705 | 3369 ft | 184 kts | 136° |
| 2026-04-27 15:11 | 44.23171 | 15.17913 | 3166 ft | 175 kts | 136° |
| 2026-04-27 15:11 | 44.22314 | 15.19076 | 3107 ft | 173 kts | 136° |
| 2026-04-27 15:12 | 44.21436 | 15.20268 | 2888 ft | 176 kts | 136° |
| 2026-04-27 15:12 | 44.20601 | 15.21401 | 2697 ft | 162 kts | 136° |
| 2026-04-27 15:12 | 44.19832 | 15.22444 | 2489 ft | 151 kts | 136° |
| 2026-04-27 15:12 | 44.19074 | 15.23471 | 2248 ft | 150 kts | 136° |
| 2026-04-27 15:13 | 44.18337 | 15.24473 | 2067 ft | 147 kts | 136° |
| 2026-04-27 15:13 | 44.17609 | 15.25461 | 1866 ft | 145 kts | 136° |
| 2026-04-27 15:13 | 44.16882 | 15.26447 | 1677 ft | 146 kts | 137° |
| 2026-04-27 15:13 | 44.16151 | 15.27438 | 1487 ft | 147 kts | 137° |
| 2026-04-27 15:14 | 44.15411 | 15.28444 | 1283 ft | 149 kts | 136° |
| 2026-04-27 15:14 | 44.14670 | 15.29450 | 1086 ft | 148 kts | 136° |
| 2026-04-27 15:14 | 44.13935 | 15.30449 | 896 ft | 147 kts | 136° |
| 2026-04-27 15:14 | 44.13208 | 15.31437 | 709 ft | 144 kts | 136° |
| 2026-04-27 15:15 | 44.12500 | 15.32399 | 524 ft | 141 kts | 136° |
| 2026-04-27 15:15 | 44.11801 | 15.33348 | 329 ft | 141 kts | 137° |
| 2026-04-27 15:15 | 44.11139 | 15.34255 | 256 ft | 122 kts | 136° |
| 2026-04-27 15:15 | 44.10637 | 15.34940 | 263 ft | 75 kts | 135° |
| 2026-04-27 15:16 | 44.10343 | 15.35337 | 262 ft | 34 kts | 137° |
| 2026-04-27 15:16 | 44.10179 | 15.35556 | 265 ft | 31 kts | 136° |
| 2026-04-27 15:16 | 44.10063 | 15.35697 | 268 ft | 14 kts | 155° |
| 2026-04-27 15:16 | 44.09983 | 15.35650 | 267 ft | 13 kts | 222° |
| 2026-04-27 15:17 | 44.09945 | 15.35600 | 266 ft | 5 kts | 224° |
| 2026-04-27 15:17 | 44.09940 | 15.35593 | 266 ft | 0 kts | 224° |
| 2026-04-27 15:17 | 44.09938 | 15.35591 | 266 ft | 0 kts | 224° |
| 2026-04-27 15:17 | 44.09936 | 15.35587 | 266 ft | 1 kts | 224° |
| 2026-04-27 15:18 | 44.09930 | 15.35579 | 266 ft | 2 kts | 224° |
| 2026-04-27 15:18 | 44.09909 | 15.35550 | 266 ft | 5 kts | 224° |
| 2026-04-27 15:18 | 44.09873 | 15.35530 | 265 ft | 6 kts | 184° |
| 2026-04-27 15:18 | 44.09830 | 15.35530 | 265 ft | 6 kts | 178° |
| 2026-04-27 15:19 | 44.09783 | 15.35534 | 264 ft | 7 kts | 173° |
| 2026-04-27 15:19 | 44.09734 | 15.35516 | 262 ft | 8 kts | 249° |
| 2026-04-27 15:19 | 44.09744 | 15.35481 | 263 ft | 2 kts | 304° |
| 2026-04-27 15:19 | 44.09756 | 15.35470 | 263 ft | 2 kts | 339° |
| 2026-04-27 15:20 | 44.09762 | 15.35467 | 263 ft | 0 kts | 341° |
| 2026-04-27 15:20 | 44.09770 | 15.35467 | 263 ft | 0 kts | 358° |